Terminal Aerodrome Forecast
Issued by NWS Twin Cities, MN

Home | Current Version | Previous Version | Text Only | Print | Product List | Glossary Off
Versions: 1 2 3 4 5 6 7 8 9 10 11 12 13 14 15

989
FTUS43 KMPX 222333
TAFSTC
TAF
KSTC 222333Z 2300/2324 33010KT P6SM SCT040 BKN060
     FM230800 33004KT P6SM VCSH OVC015
     FM231200 36006KT 6SM -RA SCT008 OVC012
     FM231900 36008KT P6SM VCSH SCT012 OVC020=

USA.gov is the U.S. government's official web portal to all federal, state and local government web resources and services.